Time;durP1;ratioP1;P1;durP2;ratioP2;P2;SDS_P1;SDS_P2;PMS_P1;PMS_P2;Temp;Humidity;BMP_temperature;BMP_pressure;BME280_temperature;BME280_humidity;BME280_pressure;Samples;Min_cycle;Max_cycle;Signal;HPM_P1;HPM_P2
2023/08/30 00:01:56;;;;;;;;;10.33;8.00;;;;;27.62;48.13;99844.31;146630;569;47010;-78
2023/08/30 00:04:56;;;;;;;;;9.33;7.00;;;;;27.63;45.61;99853.16;146627;653;46013;-78
2023/08/30 00:07:55;;;;;;;;;9.00;8.00;;;;;27.62;47.49;99843.44;146626;572;46010;-74
2023/08/30 00:10:56;;;;;;;;;9.00;9.00;;;;;27.59;47.79;99848.87;146619;590;48016;-77
2023/08/30 00:13:51;;;;;;;;;12.00;10.67;;;;;27.58;47.84;99839.16;146630;579;46020;-75
2023/08/30 00:17:15;;;;;;;;;9.67;9.33;;;;;27.57;48.60;99830.28;146621;589;45016;-75
2023/08/30 00:20:28;;;;;;;;;6.67;6.67;;;;;27.56;47.69;99835.66;146628;640;46020;-75
2023/08/30 00:23:31;;;;;;;;;6.00;5.33;;;;;27.56;46.62;99833.84;146622;571;46016;-75
2023/08/30 00:26:30;;;;;;;;;7.00;7.00;;;;;27.56;44.63;99830.31;146631;604;46010;-77
2023/08/30 00:29:43;;;;;;;;;8.00;5.67;;;;;27.57;46.00;99832.97;146626;611;46016;-76
2023/08/30 00:32:44;;;;;;;;;6.33;6.33;;;;;27.59;45.62;99833.75;146633;564;46029;-78
2023/08/30 00:35:42;;;;;;;;;8.00;8.00;;;;;27.62;45.77;99846.97;146626;666;46014;-79
2023/08/30 00:38:48;;;;;;;;;6.00;5.33;;;;;27.63;46.40;99842.50;146631;602;46020;-77
2023/08/30 00:41:53;;;;;;;;;6.67;6.00;;;;;27.64;45.33;99833.63;146626;660;46016;-75
2023/08/30 00:45:13;;;;;;;;;;;;;;;;;;;;;
2023/08/30 00:48:25;;;;;;;;;9.00;5.33;;;;;27.63;47.61;99847.84;146628;564;46013;-79
2023/08/30 00:51:21;;;;;;;;;7.33;7.33;;;;;27.60;43.78;99840.84;146631;674;46020;-80
2023/08/30 00:54:48;;;;;;;;;7.00;5.67;;;;;27.06;47.78;99748.50;146630;639;46017;-87
2023/08/30 00:57:44;;;;;;;;;6.67;6.00;;;;;27.58;44.69;99848.00;146632;590;46020;-85
2023/08/30 01:00:39;;;;;;;;;6.00;4.67;;;;;27.57;44.25;99848.03;146623;682;47016;-88
2023/08/30 01:03:43;;;;;;;;;6.00;6.00;;;;;27.57;46.34;99853.34;146632;623;47020;-82
2023/08/30 01:06:40;;;;;;;;;6.00;5.00;;;;;27.58;42.25;99848.00;146628;673;46012;-82
2023/08/30 01:09:40;;;;;;;;;6.67;5.67;;;;;27.62;43.48;99857.63;146630;581;46039;-80
2023/08/30 01:13:01;;;;;;;;;4.33;4.00;;;;;27.62;45.03;99862.94;146625;611;46016;-81
2023/08/30 01:16:24;;;;;;;;;5.00;5.00;;;;;27.65;43.60;99864.66;146631;590;46010;-81
2023/08/30 01:19:49;;;;;;;;;6.00;5.33;;;;;27.68;44.93;99861.00;146624;641;46016;-73
2023/08/30 01:23:20;;;;;;;;;6.00;5.00;;;;;27.70;45.04;99862.72;146632;570;46010;-75
2023/08/30 01:27:02;;;;;;;;;3.33;3.33;;;;;27.23;40.45;99803.87;146627;649;46014;-77
2023/08/30 01:30:03;;;;;;;;;6.67;6.00;;;;;27.57;40.13;99886.22;146634;602;46020;-77
2023/08/30 01:32:57;;;;;;;;;3.67;3.00;;;;;27.57;42.31;99882.66;146625;565;46017;-77
2023/08/30 01:36:07;;;;;;;;;5.67;5.67;;;;;27.55;43.58;99884.50;146631;599;46020;-78
2023/08/30 01:39:05;;;;;;;;;6.00;6.00;;;;;27.50;41.04;99884.63;146625;565;46017;-78
2023/08/30 01:42:01;;;;;;;;;3.00;3.00;;;;;27.45;42.30;99883.06;146631;565;46029;-78
2023/08/30 01:45:09;;;;;;;;;4.00;4.00;;;;;27.42;42.57;99884.03;146626;652;46012;-76
2023/08/30 01:48:29;;;;;;;;;3.00;3.00;;;;;27.42;42.07;99891.16;146634;575;45021;-76
2023/08/30 01:51:30;;;;;;;;;4.33;3.00;;;;;27.41;40.91;99892.91;146627;604;46012;-77
2023/08/30 01:54:29;;;;;;;;;3.00;3.00;;;;;27.39;42.11;99900.97;146629;572;46011;-76
2023/08/30 01:57:28;;;;;;;;;5.33;4.00;;;;;27.38;40.57;99909.87;146628;576;47016;-74
2023/08/30 02:00:29;;;;;;;;;4.00;3.00;;;;;27.32;40.37;99903.84;146632;632;46010;-74
2023/08/30 02:03:30;;;;;;;;;5.67;2.33;;;;;27.29;41.87;99898.62;146625;588;47915;-74
2023/08/30 02:06:33;;;;;;;;;3.67;2.67;;;;;27.30;41.74;99903.03;146634;693;46010;-72
2023/08/30 02:09:51;;;;;;;;;6.00;3.67;;;;;27.27;41.22;99893.34;146626;594;46012;-73
2023/08/30 02:13:13;;;;;;;;;4.33;3.00;;;;;27.25;41.45;99902.31;146630;702;46010;-75
2023/08/30 02:16:19;;;;;;;;;3.00;3.00;;;;;27.22;42.39;99913.91;146626;579;46017;-75
2023/08/30 02:19:21;;;;;;;;;6.00;6.00;;;;;27.18;40.12;99909.59;146630;589;46020;-76
2023/08/30 02:22:18;;;;;;;;;4.67;3.67;;;;;27.18;42.57;99920.25;146627;581;46012;-75
2023/08/30 02:25:32;;;;;;;;;4.00;3.33;;;;;27.18;41.28;99909.59;146630;586;46020;-76
2023/08/30 02:28:44;;;;;;;;;5.00;5.00;;;;;27.16;43.34;99912.28;146629;636;46012;-77
2023/08/30 02:31:49;;;;;;;;;4.67;3.00;;;;;27.14;39.96;99910.63;146632;610;46021;-76
2023/08/30 02:34:42;;;;;;;;;2.33;2.33;;;;;27.00;40.60;99889.69;146628;662;48012;-79
2023/08/30 02:37:53;;;;;;;;;;;;;;;;;;;;;
2023/08/30 02:40:54;;;;;;;;;4.67;3.00;;;;;27.07;41.61;99909.91;146625;639;46016;-81
2023/08/30 02:43:59;;;;;;;;;7.00;3.67;;;;;27.10;42.76;99909.81;146627;624;46020;-82
2023/08/30 02:46:56;;;;;;;;;6.00;4.33;;;;;27.10;41.44;99907.16;146626;607;46016;-80
2023/08/30 02:49:52;;;;;;;;;2.33;2.33;;;;;27.13;41.91;99906.16;146634;613;46020;-84
2023/08/30 02:53:03;;;;;;;;;2.00;2.00;;;;;26.60;43.49;99820.84;146624;659;47016;-82
2023/08/30 02:56:20;;;;;;;;;3.00;3.00;;;;;27.11;41.56;99914.22;146631;591;46010;-81
2023/08/30 03:00:01;;;;;;;;;4.00;4.00;;;;;27.05;41.43;99913.53;146632;564;46015;-81
2023/08/30 03:03:06;;;;;;;;;6.33;5.00;;;;;27.00;42.46;99918.97;146632;661;46008;-81
2023/08/30 03:06:15;;;;;;;;;2.33;2.00;;;;;27.00;42.39;99916.28;146626;575;46034;-82
2023/08/30 03:09:25;;;;;;;;;3.33;3.33;;;;;26.39;42.21;99809.87;146630;566;46011;-80
2023/08/30 03:12:43;;;;;;;;;3.33;3.00;;;;;26.98;40.91;99910.16;146621;669;47910;-82
2023/08/30 03:15:52;;;;;;;;;5.33;4.00;;;;;26.98;41.62;99917.25;146632;606;46021;-82
2023/08/30 03:19:00;;;;;;;;;5.00;4.67;;;;;26.90;40.87;99923.69;146629;624;46034;-87
2023/08/30 03:22:05;;;;;;;;;6.33;5.00;;;;;26.86;41.51;99924.69;146630;680;46020;-84
2023/08/30 03:25:03;;;;;;;;;3.33;3.33;;;;;26.82;39.86;99922.13;146626;566;46912;-86
2023/08/30 03:27:55;;;;;;;;;3.00;3.00;;;;;26.81;40.45;99931.03;146628;591;46010;-81
2023/08/30 03:30:54;;;;;;;;;4.00;4.00;;;;;26.79;40.80;99928.44;146623;643;48017;-82
2023/08/30 03:34:00;;;;;;;;;;;;;;;;;;;;;
2023/08/30 03:37:01;;;;;;;;;5.00;3.67;;;;;26.81;40.16;99939.03;146626;593;46016;-79
2023/08/30 03:39:59;;;;;;;;;4.00;4.00;;;;;26.75;40.44;99934.75;146627;572;46021;-81
2023/08/30 03:43:10;;;;;;;;;4.67;4.00;;;;;26.68;41.73;99930.53;146624;569;47010;-89
2023/08/30 03:46:11;;;;;;;;;4.00;4.00;;;;;26.60;40.83;99943.13;146630;697;46010;-80
2023/08/30 03:49:08;;;;;;;;;5.33;5.33;;;;;26.54;39.71;99949.50;146628;603;47012;-77
2023/08/30 03:52:12;;;;;;;;;4.00;4.00;;;;;26.54;41.04;99961.91;146629;650;46021;-78
2023/08/30 03:55:22;;;;;;;;;5.00;3.33;;;;;25.57;41.91;99794.31;146625;585;46016;-82
2023/08/30 03:58:21;;;;;;;;;4.67;4.67;;;;;26.46;40.31;99956.78;146626;569;46020;-84
2023/08/30 04:01:37;;;;;;;;;4.00;3.00;;;;;25.61;42.61;99819.00;146619;603;46038;-84
2023/08/30 04:04:33;;;;;;;;;6.67;3.67;;;;;26.42;40.87;99958.66;146630;569;46010;-79
2023/08/30 04:07:34;;;;;;;;;5.00;3.00;;;;;26.40;40.38;99963.13;146626;639;46016;-76
2023/08/30 04:10:38;;;;;;;;;3.67;3.00;;;;;26.39;41.94;99961.38;146627;581;46010;-81
2023/08/30 04:13:31;;;;;;;;;4.00;2.00;;;;;26.43;41.42;99970.16;146623;625;46017;-76
2023/08/30 04:16:38;;;;;;;;;4.00;4.00;;;;;26.44;41.27;99969.22;146631;574;46020;-78
2023/08/30 04:19:38;;;;;;;;;6.00;5.00;;;;;26.46;42.41;99973.59;146624;589;46016;-79
2023/08/30 04:22:56;;;;;;;;;5.00;3.67;;;;;26.51;40.18;99981.47;146627;622;46029;-79
2023/08/30 04:25:54;;;;;;;;;4.67;3.00;;;;;26.54;41.22;99980.53;146621;659;46016;-80
2023/08/30 04:29:04;;;;;;;;;5.00;5.00;;;;;26.54;39.72;99984.06;146630;686;46021;-79
2023/08/30 04:32:01;;;;;;;;;4.00;4.00;;;;;26.52;40.06;99987.69;146627;564;46016;-79
2023/08/30 04:35:05;;;;;;;;;5.33;4.00;;;;;26.55;40.83;99992.94;146628;670;46020;-77
2023/08/30 04:38:13;;;;;;;;;6.67;4.33;;;;;25.87;41.20;99874.16;146627;571;46016;-78
2023/08/30 04:41:20;;;;;;;;;;;;;;;;;;;;;
2023/08/30 04:44:27;;;;;;;;;3.33;3.00;;;;;26.78;41.13;99997.62;146624;642;46018;-77
2023/08/30 04:47:33;;;;;;;;;4.33;4.00;;;;;27.21;40.17;100004.47;146630;571;46020;-78
2023/08/30 04:50:31;;;;;;;;;2.00;2.00;;;;;27.55;38.80;100007.00;146628;621;46013;-76
2023/08/30 04:53:40;;;;;;;;;4.00;2.00;;;;;27.76;40.86;100014.34;146630;599;46020;-76
2023/08/30 04:56:36;;;;;;;;;6.00;4.67;;;;;27.89;38.20;100014.88;146619;602;46016;-74
2023/08/30 04:59:35;;;;;;;;;4.33;4.00;;;;;27.97;38.30;100023.47;146630;574;46014;-75
2023/08/30 05:02:38;;;;;;;;;5.67;4.00;;;;;28.05;40.05;100026.78;146627;679;46016;-81
2023/08/30 05:54:22;;;;;;;;;2.67;2.67;;;;;28.90;34.55;100030.19;146708;569;46022;-77
2023/08/30 05:57:33;;;;;;;;;3.00;2.00;;;;;29.10;36.18;100034.00;146626;581;46943;-77
2023/08/30 06:00:33;;;;;;;;;4.00;2.00;;;;;29.36;34.98;100039.22;146632;595;46020;-75
2023/08/30 06:03:46;;;;;;;;;2.00;2.00;;;;;29.58;34.47;100036.63;146626;593;46012;-81
2023/08/30 06:06:45;;;;;;;;;7.33;4.67;;;;;29.81;40.38;100034.88;146632;592;46010;-81
2023/08/30 06:09:52;;;;;;;;;6.67;4.00;;;;;30.02;37.05;100039.38;146625;636;46016;-86
2023/08/30 06:12:47;;;;;;;;;4.33;3.33;;;;;30.09;34.54;100046.25;146628;569;46020;-84
